OEYN Airport Information

Runway Information
Runway 10 Length 10532 ft width 148 ft
Elevation 18 ft Threshold 0 ft Heading 103
Runway 28 Length 10532 ft Width 148 ft
Elevation 26 ft Threshold 0 ft Heading 283
Airport Frequencies
Type AFIS Name INFO Frequency 118.1 MHZ
Type CTAF Name CTAF Frequency 122.8 MHZ
Type MISC Name FIRE RESCU Frequency 133.5 MHZ
Airport Navaids
Airport Weather Information & NOTAM
ADDS - METARS form results

(0132 UTC 19 August 2018)
 
METAR text: OEYN 190100Z 32004KT CAVOK 30/25 Q0999 NOSIG
Conditions at: OEYN (YENBO , SA) observed 0100 UTC 19 August 2018
Temperature: 30.0°C (86°F)
Dewpoint: 25.0°C (77°F) [RH = 75%]
Pressure (altimeter): 29.50 inches Hg (999.0 mb)
Winds: from the NW (320 degrees) at 5 MPH (4 knots; 2.1 m/s)
Visibility: 6 or more miles (10+ km)
Ceiling: ceiling and visibility are OK
Clouds: unknown
Weather: no significant weather observed at this time